sensor_id;sensor_type;location;lat;lon;timestamp;pressure;altitude;pressure_sealevel;temperature;humidity
74544;BME280;63016;55.030;38.710;2023-04-16T00:00:49;101542.97;;;2.35;34.14
74544;BME280;63016;55.030;38.710;2023-04-16T00:03:15;101544.00;;;2.30;34.71
74544;BME280;63016;55.030;38.710;2023-04-16T00:05:40;101546.66;;;2.29;34.60
74544;BME280;63016;55.030;38.710;2023-04-16T00:08:06;101549.38;;;2.26;34.15
74544;BME280;63016;55.030;38.710;2023-04-16T00:10:33;101546.97;;;2.23;34.99
74544;BME280;63016;55.030;38.710;2023-04-16T00:12:59;101550.50;;;2.20;34.28
74544;BME280;63016;55.030;38.710;2023-04-16T00:15:25;101552.31;;;2.18;34.86
74544;BME280;63016;55.030;38.710;2023-04-16T00:17:50;101555.84;;;2.16;34.97
74544;BME280;63016;55.030;38.710;2023-04-16T00:20:16;101553.41;;;2.13;34.63
74544;BME280;63016;55.030;38.710;2023-04-16T00:22:41;101554.47;;;2.09;34.59
74544;BME280;63016;55.030;38.710;2023-04-16T00:25:07;101561.38;;;2.08;34.59
74544;BME280;63016;55.030;38.710;2023-04-16T00:27:33;101563.16;;;2.06;34.07
74544;BME280;63016;55.030;38.710;2023-04-16T00:29:58;101566.66;;;2.05;34.69
74544;BME280;63016;55.030;38.710;2023-04-16T00:32:24;101567.59;;;2.02;34.55
74544;BME280;63016;55.030;38.710;2023-04-16T00:34:49;101565.25;;;1.98;34.29
74544;BME280;63016;55.030;38.710;2023-04-16T00:37:15;101565.31;;;1.96;34.77
74544;BME280;63016;55.030;38.710;2023-04-16T00:39:40;101566.31;;;1.94;34.90
74544;BME280;63016;55.030;38.710;2023-04-16T00:42:06;101565.59;;;1.90;34.77
74544;BME280;63016;55.030;38.710;2023-04-16T00:44:31;101558.84;;;1.88;34.42
74544;BME280;63016;55.030;38.710;2023-04-16T00:47:00;101560.66;;;1.86;34.72
74544;BME280;63016;55.030;38.710;2023-04-16T00:49:26;101562.41;;;1.85;35.16
74544;BME280;63016;55.030;38.710;2023-04-16T00:51:52;101565.19;;;1.80;35.33
74544;BME280;63016;55.030;38.710;2023-04-16T00:54:18;101567.75;;;1.80;34.73
74544;BME280;63016;55.030;38.710;2023-04-16T00:56:44;101578.97;;;1.79;34.64
74544;BME280;63016;55.030;38.710;2023-04-16T00:59:09;101559.31;;;1.77;34.59
74544;BME280;63016;55.030;38.710;2023-04-16T01:01:35;101554.31;;;1.74;35.33
74544;BME280;63016;55.030;38.710;2023-04-16T01:04:01;101570.59;;;1.74;35.08
74544;BME280;63016;55.030;38.710;2023-04-16T01:06:26;101560.44;;;1.71;34.96
74544;BME280;63016;55.030;38.710;2023-04-16T01:08:52;101564.84;;;1.69;35.33
74544;BME280;63016;55.030;38.710;2023-04-16T01:11:18;101564.03;;;1.67;35.64
74544;BME280;63016;55.030;38.710;2023-04-16T01:13:43;101558.91;;;1.67;35.64
74544;BME280;63016;55.030;38.710;2023-04-16T01:16:10;101567.53;;;1.66;35.05
74544;BME280;63016;55.030;38.710;2023-04-16T01:18:37;101556.53;;;1.63;34.81
74544;BME280;63016;55.030;38.710;2023-04-16T01:21:03;101560.00;;;1.62;35.24
74544;BME280;63016;55.030;38.710;2023-04-16T01:23:29;101557.56;;;1.59;35.20
74544;BME280;63016;55.030;38.710;2023-04-16T01:25:55;101567.84;;;1.59;35.28
74544;BME280;63016;55.030;38.710;2023-04-16T01:28:21;101570.50;;;1.57;35.66
74544;BME280;63016;55.030;38.710;2023-04-16T01:30:47;101571.34;;;1.58;34.98
74544;BME280;63016;55.030;38.710;2023-04-16T01:33:13;101566.31;;;1.54;35.85
74544;BME280;63016;55.030;38.710;2023-04-16T01:35:40;101569.78;;;1.53;34.95
74544;BME280;63016;55.030;38.710;2023-04-16T01:38:07;101566.47;;;1.51;34.90
74544;BME280;63016;55.030;38.710;2023-04-16T01:40:36;101567.38;;;1.50;36.02
74544;BME280;63016;55.030;38.710;2023-04-16T01:43:02;101568.41;;;1.46;35.05
74544;BME280;63016;55.030;38.710;2023-04-16T01:45:30;101574.38;;;1.47;35.80
74544;BME280;63016;55.030;38.710;2023-04-16T01:47:56;101570.97;;;1.46;34.82
74544;BME280;63016;55.030;38.710;2023-04-16T01:50:21;101567.69;;;1.43;35.13
74544;BME280;63016;55.030;38.710;2023-04-16T01:52:47;101565.13;;;1.43;35.45
74544;BME280;63016;55.030;38.710;2023-04-16T01:55:13;101569.50;;;1.41;35.56
74544;BME280;63016;55.030;38.710;2023-04-16T01:57:38;101571.28;;;1.39;34.93
74544;BME280;63016;55.030;38.710;2023-04-16T02:00:04;101569.63;;;1.38;35.22
74544;BME280;63016;55.030;38.710;2023-04-16T02:02:30;101568.78;;;1.37;35.53
74544;BME280;63016;55.030;38.710;2023-04-16T02:04:56;101573.13;;;1.35;35.81
74544;BME280;63016;55.030;38.710;2023-04-16T02:07:23;101560.56;;;1.29;35.69
74544;BME280;63016;55.030;38.710;2023-04-16T02:09:48;101573.47;;;1.27;35.37
74544;BME280;63016;55.030;38.710;2023-04-16T02:12:17;101580.28;;;1.28;35.49
74544;BME280;63016;55.030;38.710;2023-04-16T02:14:43;101579.47;;;1.28;35.05
74544;BME280;63016;55.030;38.710;2023-04-16T02:17:08;101576.97;;;1.26;35.39
74544;BME280;63016;55.030;38.710;2023-04-16T02:19:34;101576.13;;;1.26;35.68
74544;BME280;63016;55.030;38.710;2023-04-16T02:22:00;101578.75;;;1.24;35.16
74544;BME280;63016;55.030;38.710;2023-04-16T02:24:26;101572.00;;;1.22;35.36
74544;BME280;63016;55.030;38.710;2023-04-16T02:26:52;101578.03;;;1.21;35.58
74544;BME280;63016;55.030;38.710;2023-04-16T02:29:18;101573.88;;;1.18;36.12
74544;BME280;63016;55.030;38.710;2023-04-16T02:31:44;101572.13;;;1.19;35.86
74544;BME280;63016;55.030;38.710;2023-04-16T02:34:09;101581.56;;;1.18;35.75
74544;BME280;63016;55.030;38.710;2023-04-16T02:36:35;101578.19;;;1.18;35.81
74544;BME280;63016;55.030;38.710;2023-04-16T02:39:00;101574.78;;;1.17;35.52
74544;BME280;63016;55.030;38.710;2023-04-16T02:41:26;101591.09;;;1.16;35.83
74544;BME280;63016;55.030;38.710;2023-04-16T02:43:51;101582.50;;;1.17;36.08
74544;BME280;63016;55.030;38.710;2023-04-16T02:46:17;101583.41;;;1.16;36.34
74544;BME280;63016;55.030;38.710;2023-04-16T02:48:42;101587.63;;;1.17;36.16
74544;BME280;63016;55.030;38.710;2023-04-16T02:51:08;101584.22;;;1.17;35.83
74544;BME280;63016;55.030;38.710;2023-04-16T02:53:33;101583.41;;;1.16;36.76
74544;BME280;63016;55.030;38.710;2023-04-16T02:55:59;101590.13;;;1.19;36.01
74544;BME280;63016;55.030;38.710;2023-04-16T02:58:25;101590.06;;;1.20;36.00
74544;BME280;63016;55.030;38.710;2023-04-16T03:00:52;101590.84;;;1.22;36.23
74544;BME280;63016;55.030;38.710;2023-04-16T03:03:18;101599.38;;;1.23;36.12
74544;BME280;63016;55.030;38.710;2023-04-16T03:05:44;101593.25;;;1.25;36.55
74544;BME280;63016;55.030;38.710;2023-04-16T03:08:09;101591.47;;;1.27;36.38
74544;BME280;63016;55.030;38.710;2023-04-16T03:10:35;101593.16;;;1.28;36.65
74544;BME280;63016;55.030;38.710;2023-04-16T03:13:01;101593.94;;;1.31;36.40
74544;BME280;63016;55.030;38.710;2023-04-16T03:15:27;101602.41;;;1.33;36.02
74544;BME280;63016;55.030;38.710;2023-04-16T03:17:53;101601.31;;;1.38;36.65
74544;BME280;63016;55.030;38.710;2023-04-16T03:20:18;101602.03;;;1.42;36.78
74544;BME280;63016;55.030;38.710;2023-04-16T03:22:45;101599.38;;;1.43;37.14
74544;BME280;63016;55.030;38.710;2023-04-16T03:25:11;101594.03;;;1.48;36.40
74544;BME280;63016;55.030;38.710;2023-04-16T03:27:36;101583.69;;;1.49;36.90
74544;BME280;63016;55.030;38.710;2023-04-16T03:30:05;101594.59;;;1.54;37.53
74544;BME280;63016;55.030;38.710;2023-04-16T03:32:31;101590.88;;;1.62;36.82
74544;BME280;63016;55.030;38.710;2023-04-16T03:34:56;101598.41;;;1.66;37.46
74544;BME280;63016;55.030;38.710;2023-04-16T03:37:22;101600.69;;;1.72;37.16
74544;BME280;63016;55.030;38.710;2023-04-16T03:39:47;101595.22;;;1.80;37.08
74544;BME280;63016;55.030;38.710;2023-04-16T03:42:13;101594.88;;;1.88;36.86
74544;BME280;63016;55.030;38.710;2023-04-16T03:44:38;101601.38;;;1.96;37.58
74544;BME280;63016;55.030;38.710;2023-04-16T03:47:04;101584.59;;;2.06;37.12
74544;BME280;63016;55.030;38.710;2023-04-16T03:49:30;101591.16;;;2.14;37.17
74544;BME280;63016;55.030;38.710;2023-04-16T03:51:55;101593.16;;;2.26;37.34
74544;BME280;63016;55.030;38.710;2023-04-16T03:54:21;101594.34;;;2.38;37.74
74544;BME280;63016;55.030;38.710;2023-04-16T03:56:46;101595.41;;;2.51;37.96
74544;BME280;63016;55.030;38.710;2023-04-16T03:59:11;101597.50;;;2.62;37.46
74544;BME280;63016;55.030;38.710;2023-04-16T04:01:37;101596.84;;;2.75;37.82
74544;BME280;63016;55.030;38.710;2023-04-16T04:04:02;101601.34;;;2.89;37.55
74544;BME280;63016;55.030;38.710;2023-04-16T04:06:28;101597.34;;;3.01;37.54
74544;BME280;63016;55.030;38.710;2023-04-16T04:08:53;101602.47;;;3.18;37.74
74544;BME280;63016;55.030;38.710;2023-04-16T04:11:19;101595.72;;;3.33;37.41
74544;BME280;63016;55.030;38.710;2023-04-16T04:13:44;101593.97;;;3.51;37.38
74544;BME280;63016;55.030;38.710;2023-04-16T04:16:10;101592.25;;;3.67;37.77
74544;BME280;63016;55.030;38.710;2023-04-16T04:18:35;101587.75;;;3.88;38.06
74544;BME280;63016;55.030;38.710;2023-04-16T04:21:07;101583.25;;;4.07;38.66
74544;BME280;63016;55.030;38.710;2023-04-16T04:23:34;101586.53;;;4.27;37.84
74544;BME280;63016;55.030;38.710;2023-04-16T04:26:00;101583.81;;;4.44;38.19
74544;BME280;63016;55.030;38.710;2023-04-16T04:28:32;101587.72;;;4.67;38.35
74544;BME280;63016;55.030;38.710;2023-04-16T04:30:59;101588.25;;;4.88;37.83
74544;BME280;63016;55.030;38.710;2023-04-16T04:33:25;101585.28;;;5.10;38.01
74544;BME280;63016;55.030;38.710;2023-04-16T04:35:51;101587.28;;;5.35;37.96
74544;BME280;63016;55.030;38.710;2023-04-16T04:38:16;101585.75;;;5.61;37.66
74544;BME280;63016;55.030;38.710;2023-04-16T04:40:47;101584.44;;;5.82;37.61
74544;BME280;63016;55.030;38.710;2023-04-16T04:43:13;101580.28;;;6.08;37.65
74544;BME280;63016;55.030;38.710;2023-04-16T04:45:39;101592.34;;;6.36;37.69
74544;BME280;63016;55.030;38.710;2023-04-16T04:48:05;101585.72;;;6.59;37.43
74544;BME280;63016;55.030;38.710;2023-04-16T04:50:30;101590.25;;;6.95;38.18
74544;BME280;63016;55.030;38.710;2023-04-16T04:52:56;101584.59;;;7.29;38.28
74544;BME280;63016;55.030;38.710;2023-04-16T04:55:22;101587.13;;;7.56;38.33
74544;BME280;63016;55.030;38.710;2023-04-16T04:57:48;101576.06;;;7.78;38.47
74544;BME280;63016;55.030;38.710;2023-04-16T05:00:13;101576.88;;;8.04;38.60
74544;BME280;63016;55.030;38.710;2023-04-16T05:02:39;101572.63;;;8.27;37.95
74544;BME280;63016;55.030;38.710;2023-04-16T05:05:05;101572.66;;;8.50;38.08
74544;BME280;63016;55.030;38.710;2023-04-16T05:07:31;101570.50;;;8.68;37.94
74544;BME280;63016;55.030;38.710;2023-04-16T05:09:56;101581.84;;;8.91;38.19
74544;BME280;63016;55.030;38.710;2023-04-16T05:12:22;101577.53;;;9.14;38.20
74544;BME280;63016;55.030;38.710;2023-04-16T05:14:47;101582.06;;;9.35;37.90
74544;BME280;63016;55.030;38.710;2023-04-16T05:17:12;101576.28;;;9.53;37.63
74544;BME280;63016;55.030;38.710;2023-04-16T05:19:38;101571.41;;;9.71;37.84
74544;BME280;63016;55.030;38.710;2023-04-16T05:22:04;101580.56;;;9.88;37.25
74544;BME280;63016;55.030;38.710;2023-04-16T05:24:29;101561.78;;;10.05;37.79
74544;BME280;63016;55.030;38.710;2023-04-16T05:26:55;101565.81;;;10.21;37.62
74544;BME280;63016;55.030;38.710;2023-04-16T05:29:21;101574.56;;;10.42;37.45
74544;BME280;63016;55.030;38.710;2023-04-16T05:31:47;101577.09;;;10.65;37.67
74544;BME280;63016;55.030;38.710;2023-04-16T05:37:21;101570.81;;;11.09;37.50
74544;BME280;63016;55.030;38.710;2023-04-16T05:39:47;101580.69;;;11.26;37.20
74544;BME280;63016;55.030;38.710;2023-04-16T05:42:12;101572.25;;;11.44;37.03
74544;BME280;63016;55.030;38.710;2023-04-16T05:44:39;101573.47;;;11.61;37.16
74544;BME280;63016;55.030;38.710;2023-04-16T05:47:04;101583.28;;;11.78;37.16
74544;BME280;63016;55.030;38.710;2023-04-16T05:49:31;101579.50;;;11.92;36.93
74544;BME280;63016;55.030;38.710;2023-04-16T05:51:57;101578.88;;;12.09;36.58
74544;BME280;63016;55.030;38.710;2023-04-16T05:54:22;101577.66;;;12.23;37.10
74544;BME280;63016;55.030;38.710;2023-04-16T05:56:48;101577.00;;;12.40;36.68
74544;BME280;63016;55.030;38.710;2023-04-16T05:59:13;101576.19;;;12.59;37.09
74544;BME280;63016;55.030;38.710;2023-04-16T06:01:39;101590.25;;;12.77;36.50
74544;BME280;63016;55.030;38.710;2023-04-16T06:04:05;101583.91;;;12.90;35.76
74544;BME280;63016;55.030;38.710;2023-04-16T06:06:31;101584.59;;;13.01;35.67
74544;BME280;63016;55.030;38.710;2023-04-16T06:08:56;101585.50;;;13.10;35.87
74544;BME280;63016;55.030;38.710;2023-04-16T06:11:22;101585.25;;;13.13;35.25
74544;BME280;63016;55.030;38.710;2023-04-16T06:13:47;101584.56;;;13.21;35.38
74544;BME280;63016;55.030;38.710;2023-04-16T06:16:13;101580.25;;;13.29;35.27
74544;BME280;63016;55.030;38.710;2023-04-16T06:18:38;101585.63;;;13.37;35.10
74544;BME280;63016;55.030;38.710;2023-04-16T06:21:04;101586.59;;;13.46;35.05
74544;BME280;63016;55.030;38.710;2023-04-16T06:23:29;101591.25;;;13.52;34.67
74544;BME280;63016;55.030;38.710;2023-04-16T06:25:55;101589.72;;;13.59;34.63
74544;BME280;63016;55.030;38.710;2023-04-16T06:28:20;101580.44;;;13.65;34.52
74544;BME280;63016;55.030;38.710;2023-04-16T06:30:46;101581.66;;;13.71;34.93
74544;BME280;63016;55.030;38.710;2023-04-16T06:33:11;101581.91;;;13.77;34.25
74544;BME280;63016;55.030;38.710;2023-04-16T06:35:37;101589.50;;;13.80;34.14
74544;BME280;63016;55.030;38.710;2023-04-16T06:38:03;101586.16;;;13.88;34.27
74544;BME280;63016;55.030;38.710;2023-04-16T06:40:28;101582.50;;;13.99;36.24
74544;BME280;63016;55.030;38.710;2023-04-16T06:42:54;101572.72;;;14.19;34.67
74544;BME280;63016;55.030;38.710;2023-04-16T06:45:20;101571.91;;;14.36;34.89
74544;BME280;63016;55.030;38.710;2023-04-16T06:47:45;101576.53;;;14.52;34.60
74544;BME280;63016;55.030;38.710;2023-04-16T06:50:12;101570.06;;;14.64;34.18
74544;BME280;63016;55.030;38.710;2023-04-16T06:52:37;101569.03;;;14.75;34.29
74544;BME280;63016;55.030;38.710;2023-04-16T06:55:03;101569.75;;;14.85;34.37
74544;BME280;63016;55.030;38.710;2023-04-16T06:57:29;101567.53;;;14.98;33.84
74544;BME280;63016;55.030;38.710;2023-04-16T06:59:54;101566.63;;;15.07;33.47
74544;BME280;63016;55.030;38.710;2023-04-16T07:02:20;101574.88;;;15.12;33.40
74544;BME280;63016;55.030;38.710;2023-04-16T07:04:45;101574.63;;;15.24;33.65
74544;BME280;63016;55.030;38.710;2023-04-16T07:07:11;101569.41;;;15.32;33.82
74544;BME280;63016;55.030;38.710;2023-04-16T07:09:36;101570.47;;;15.47;33.49
74544;BME280;63016;55.030;38.710;2023-04-16T07:12:02;101564.78;;;15.60;32.78
74544;BME280;63016;55.030;38.710;2023-04-16T07:14:27;101567.34;;;15.70;33.33
74544;BME280;63016;55.030;38.710;2023-04-16T07:16:53;101553.06;;;15.72;33.01
74544;BME280;63016;55.030;38.710;2023-04-16T07:19:18;101572.03;;;15.92;33.22
74544;BME280;63016;55.030;38.710;2023-04-16T07:21:44;101559.25;;;16.05;33.25
74544;BME280;63016;55.030;38.710;2023-04-16T07:24:10;101560.41;;;16.19;32.83
74544;BME280;63016;55.030;38.710;2023-04-16T07:26:36;101550.56;;;16.29;32.75
74544;BME280;63016;55.030;38.710;2023-04-16T07:29:01;101554.53;;;16.41;32.61
74544;BME280;63016;55.030;38.710;2023-04-16T07:31:27;101548.28;;;16.51;32.95
74544;BME280;63016;55.030;38.710;2023-04-16T07:33:53;101564.13;;;16.59;32.17
74544;BME280;63016;55.030;38.710;2023-04-16T07:36:19;101549.13;;;16.59;32.26
74544;BME280;63016;55.030;38.710;2023-04-16T07:38:45;101548.97;;;16.69;32.44
74544;BME280;63016;55.030;38.710;2023-04-16T07:41:10;101550.63;;;16.78;32.06
74544;BME280;63016;55.030;38.710;2023-04-16T07:43:36;101556.88;;;16.85;32.25
74544;BME280;63016;55.030;38.710;2023-04-16T07:46:01;101552.75;;;16.91;32.42
74544;BME280;63016;55.030;38.710;2023-04-16T07:48:26;101551.75;;;17.00;34.39
74544;BME280;63016;55.030;38.710;2023-04-16T07:50:52;101558.34;;;17.12;32.81
74544;BME280;63016;55.030;38.710;2023-04-16T07:53:19;101559.31;;;17.19;32.09
74544;BME280;63016;55.030;38.710;2023-04-16T07:55:44;101559.63;;;17.25;32.24
74544;BME280;63016;55.030;38.710;2023-04-16T07:58:10;101553.50;;;17.32;32.16
74544;BME280;63016;55.030;38.710;2023-04-16T08:00:36;101546.72;;;17.38;32.14
74544;BME280;63016;55.030;38.710;2023-04-16T08:03:01;101540.13;;;17.34;31.25
74544;BME280;63016;55.030;38.710;2023-04-16T08:05:27;101540.31;;;17.32;31.22
74544;BME280;63016;55.030;38.710;2023-04-16T08:07:53;101538.50;;;17.33;31.19
74544;BME280;63016;55.030;38.710;2023-04-16T08:10:18;101528.47;;;17.28;31.42
74544;BME280;63016;55.030;38.710;2023-04-16T08:12:44;101541.31;;;17.31;30.91
74544;BME280;63016;55.030;38.710;2023-04-16T08:15:09;101530.28;;;17.28;30.54
74544;BME280;63016;55.030;38.710;2023-04-16T08:17:35;101532.75;;;17.21;30.48
74544;BME280;63016;55.030;38.710;2023-04-16T08:20:02;101533.91;;;17.18;30.46
74544;BME280;63016;55.030;38.710;2023-04-16T08:22:27;101532.44;;;17.16;30.51
74544;BME280;63016;55.030;38.710;2023-04-16T08:24:53;101526.81;;;17.19;31.08
74544;BME280;63016;55.030;38.710;2023-04-16T08:27:18;101534.91;;;17.17;30.64
74544;BME280;63016;55.030;38.710;2023-04-16T08:29:44;101536.56;;;17.18;30.38
74544;BME280;63016;55.030;38.710;2023-04-16T08:32:10;101525.19;;;17.18;30.45
74544;BME280;63016;55.030;38.710;2023-04-16T08:34:36;101526.66;;;17.20;30.22
74544;BME280;63016;55.030;38.710;2023-04-16T08:37:02;101517.78;;;17.13;30.07
74544;BME280;63016;55.030;38.710;2023-04-16T08:39:27;101518.47;;;17.07;30.50
74544;BME280;63016;55.030;38.710;2023-04-16T08:41:54;101510.88;;;17.12;30.96
74544;BME280;63016;55.030;38.710;2023-04-16T08:44:31;101503.91;;;17.11;30.61
74544;BME280;63016;55.030;38.710;2023-04-16T08:47:08;101503.47;;;17.08;30.62
74544;BME280;63016;55.030;38.710;2023-04-16T08:49:35;101499.81;;;17.09;30.19
74544;BME280;63016;55.030;38.710;2023-04-16T08:52:05;101508.06;;;17.14;30.91
74544;BME280;63016;55.030;38.710;2023-04-16T08:54:42;101505.59;;;17.12;30.16
74544;BME280;63016;55.030;38.710;2023-04-16T08:57:11;101507.91;;;17.07;30.23
74544;BME280;63016;55.030;38.710;2023-04-16T08:59:41;101504.59;;;17.05;30.61
74544;BME280;63016;55.030;38.710;2023-04-16T09:02:10;101496.38;;;17.08;30.86
74544;BME280;63016;55.030;38.710;2023-04-16T09:04:37;101498.81;;;17.10;30.35
74544;BME280;63016;55.030;38.710;2023-04-16T09:07:07;101497.00;;;17.10;30.41
74544;BME280;63016;55.030;38.710;2023-04-16T09:09:32;101494.06;;;17.05;30.01
74544;BME280;63016;55.030;38.710;2023-04-16T09:11:58;101484.19;;;16.99;30.22
74544;BME280;63016;55.030;38.710;2023-04-16T09:14:24;101482.56;;;16.98;30.10
74544;BME280;63016;55.030;38.710;2023-04-16T09:16:52;101497.69;;;16.96;30.44
74544;BME280;63016;55.030;38.710;2023-04-16T09:19:18;101486.19;;;16.89;29.73
74544;BME280;63016;55.030;38.710;2023-04-16T09:21:45;101497.06;;;16.78;29.88
74544;BME280;63016;55.030;38.710;2023-04-16T09:24:11;101491.78;;;16.78;30.31
74544;BME280;63016;55.030;38.710;2023-04-16T09:26:37;101477.66;;;16.79;30.30
74544;BME280;63016;55.030;38.710;2023-04-16T09:29:03;101475.47;;;16.90;30.52
74544;BME280;63016;55.030;38.710;2023-04-16T09:31:28;101476.47;;;16.98;30.35
74544;BME280;63016;55.030;38.710;2023-04-16T09:34:05;101481.06;;;17.04;30.36
74544;BME280;63016;55.030;38.710;2023-04-16T09:36:32;101472.97;;;17.05;30.31
74544;BME280;63016;55.030;38.710;2023-04-16T09:38:58;101471.31;;;17.04;29.93
74544;BME280;63016;55.030;38.710;2023-04-16T09:41:27;101461.59;;;17.05;30.14
74544;BME280;63016;55.030;38.710;2023-04-16T09:43:59;101474.44;;;17.08;30.39
74544;BME280;63016;55.030;38.710;2023-04-16T09:46:41;101468.81;;;17.11;30.60
74544;BME280;63016;55.030;38.710;2023-04-16T09:49:14;101476.28;;;17.07;29.93
74544;BME280;63016;55.030;38.710;2023-04-16T09:51:41;101466.69;;;17.06;30.09
74544;BME280;63016;55.030;38.710;2023-04-16T09:54:08;101462.72;;;17.10;30.09
74544;BME280;63016;55.030;38.710;2023-04-16T09:56:41;101470.63;;;17.18;29.72
74544;BME280;63016;55.030;38.710;2023-04-16T09:59:10;101462.72;;;17.10;29.19
74544;BME280;63016;55.030;38.710;2023-04-16T10:01:41;101467.06;;;16.95;29.51
74544;BME280;63016;55.030;38.710;2023-04-16T10:04:07;101454.19;;;16.92;29.08
74544;BME280;63016;55.030;38.710;2023-04-16T10:06:32;101459.66;;;16.90;29.26
74544;BME280;63016;55.030;38.710;2023-04-16T10:08:58;101451.75;;;16.90;29.56
74544;BME280;63016;55.030;38.710;2023-04-16T10:11:23;101452.06;;;16.87;29.10
74544;BME280;63016;55.030;38.710;2023-04-16T10:13:49;101445.03;;;16.80;29.04
74544;BME280;63016;55.030;38.710;2023-04-16T10:16:16;101446.00;;;16.79;29.16
74544;BME280;63016;55.030;38.710;2023-04-16T10:18:44;101444.19;;;16.71;29.10
74544;BME280;63016;55.030;38.710;2023-04-16T10:21:10;101443.06;;;16.74;29.82
74544;BME280;63016;55.030;38.710;2023-04-16T10:23:40;101436.28;;;16.79;29.70
74544;BME280;63016;55.030;38.710;2023-04-16T10:26:06;101447.66;;;16.80;28.65
74544;BME280;63016;55.030;38.710;2023-04-16T10:28:32;101447.13;;;16.68;29.27
74544;BME280;63016;55.030;38.710;2023-04-16T10:31:01;101441.03;;;16.67;29.72
74544;BME280;63016;55.030;38.710;2023-04-16T10:33:32;101446.66;;;16.73;28.96
74544;BME280;63016;55.030;38.710;2023-04-16T10:38:46;101443.34;;;16.87;29.60
74544;BME280;63016;55.030;38.710;2023-04-16T10:41:12;101437.75;;;16.90;29.36
74544;BME280;63016;55.030;38.710;2023-04-16T10:43:48;101442.53;;;16.86;29.08
74544;BME280;63016;55.030;38.710;2023-04-16T10:46:22;101439.88;;;16.86;29.48
74544;BME280;63016;55.030;38.710;2023-04-16T10:48:49;101435.75;;;16.92;29.85
74544;BME280;63016;55.030;38.710;2023-04-16T10:51:31;101429.31;;;16.94;29.67
74544;BME280;63016;55.030;38.710;2023-04-16T10:56:30;101420.97;;;16.83;29.36
74544;BME280;63016;55.030;38.710;2023-04-16T10:58:56;101422.91;;;16.89;29.36
74544;BME280;63016;55.030;38.710;2023-04-16T11:01:39;101418.59;;;16.96;29.28
74544;BME280;63016;55.030;38.710;2023-04-16T11:12:19;101411.47;;;17.13;29.26
74544;BME280;63016;55.030;38.710;2023-04-16T11:14:53;101397.91;;;17.16;29.90
74544;BME280;63016;55.030;38.710;2023-04-16T11:17:19;101411.28;;;17.14;28.97
74544;BME280;63016;55.030;38.710;2023-04-16T11:19:45;101408.97;;;17.11;29.08
74544;BME280;63016;55.030;38.710;2023-04-16T11:22:15;101405.72;;;17.09;28.71
74544;BME280;63016;55.030;38.710;2023-04-16T11:24:45;101395.34;;;17.08;28.99
74544;BME280;63016;55.030;38.710;2023-04-16T11:27:14;101392.19;;;17.12;29.39
74544;BME280;63016;55.030;38.710;2023-04-16T11:29:40;101385.22;;;17.19;28.80
74544;BME280;63016;55.030;38.710;2023-04-16T11:32:06;101386.03;;;17.20;28.60
74544;BME280;63016;55.030;38.710;2023-04-16T11:34:31;101367.78;;;17.10;27.89
74544;BME280;63016;55.030;38.710;2023-04-16T11:36:57;101372.97;;;16.95;28.39
74544;BME280;63016;55.030;38.710;2023-04-16T11:39:23;101379.59;;;16.83;28.24
74544;BME280;63016;55.030;38.710;2023-04-16T11:41:49;101376.81;;;16.77;28.07
74544;BME280;63016;55.030;38.710;2023-04-16T11:44:24;101369.06;;;16.67;28.25
74544;BME280;63016;55.030;38.710;2023-04-16T11:46:51;101373.19;;;16.69;28.06
74544;BME280;63016;55.030;38.710;2023-04-16T11:49:29;101358.72;;;16.74;28.19
74544;BME280;63016;55.030;38.710;2023-04-16T11:51:55;101364.94;;;16.81;28.84
74544;BME280;63016;55.030;38.710;2023-04-16T11:54:22;101366.88;;;16.87;28.93
74544;BME280;63016;55.030;38.710;2023-04-16T11:56:50;101360.47;;;16.89;28.75
74544;BME280;63016;55.030;38.710;2023-04-16T11:59:20;101338.03;;;16.93;28.92
74544;BME280;63016;55.030;38.710;2023-04-16T12:01:51;101343.13;;;16.95;28.03
74544;BME280;63016;55.030;38.710;2023-04-16T12:04:19;101350.09;;;16.88;28.14
74544;BME280;63016;55.030;38.710;2023-04-16T12:07:12;101350.75;;;16.90;29.53
74544;BME280;63016;55.030;38.710;2023-04-16T12:09:41;101350.09;;;16.88;28.25
74544;BME280;63016;55.030;38.710;2023-04-16T12:12:26;101346.31;;;16.82;29.00
74544;BME280;63016;55.030;38.710;2023-04-16T12:14:55;101341.88;;;16.83;28.36
74544;BME280;63016;55.030;38.710;2023-04-16T12:17:21;101329.66;;;16.90;28.88
74544;BME280;63016;55.030;38.710;2023-04-16T12:19:54;101336.19;;;17.02;28.68
74544;BME280;63016;55.030;38.710;2023-04-16T12:22:34;101337.25;;;17.16;29.45
74544;BME280;63016;55.030;38.710;2023-04-16T12:25:01;101330.13;;;17.25;28.46
74544;BME280;63016;55.030;38.710;2023-04-16T12:30:06;101331.00;;;17.17;27.93
74544;BME280;63016;55.030;38.710;2023-04-16T12:32:32;101325.94;;;17.07;28.22
74544;BME280;63016;55.030;38.710;2023-04-16T12:34:58;101322.84;;;17.04;28.03
74544;BME280;63016;55.030;38.710;2023-04-16T12:37:23;101322.31;;;17.08;28.40
74544;BME280;63016;55.030;38.710;2023-04-16T12:39:49;101307.59;;;17.14;28.08
74544;BME280;63016;55.030;38.710;2023-04-16T12:42:14;101308.25;;;17.16;27.97
74544;BME280;63016;55.030;38.710;2023-04-16T12:44:40;101309.09;;;17.16;27.98
74544;BME280;63016;55.030;38.710;2023-04-16T12:47:06;101304.78;;;17.15;28.19
74544;BME280;63016;55.030;38.710;2023-04-16T12:53:21;101303.34;;;17.13;29.01
74544;BME280;63016;55.030;38.710;2023-04-16T12:55:46;101300.81;;;17.19;28.36
74544;BME280;63016;55.030;38.710;2023-04-16T12:58:12;101297.75;;;17.31;28.51
74544;BME280;63016;55.030;38.710;2023-04-16T13:00:38;101287.81;;;17.41;28.14
74544;BME280;63016;55.030;38.710;2023-04-16T13:03:04;101284.53;;;17.39;28.46
74544;BME280;63016;55.030;38.710;2023-04-16T13:05:30;101286.53;;;17.37;28.46